Time;durP1;ratioP1;P1;durP2;ratioP2;P2;SDS_P1;SDS_P2;PMS_P1;PMS_P2;Temp;Humidity;BMP_temperature;BMP_pressure;BME280_temperature;BME280_humidity;BME280_pressure;Samples;Min_cycle;Max_cycle;Signal;HPM_P1;HPM_P2
2023/06/01 00:00:15;;;;;;;6.90;4.30;;;;;;;15.12;100.00;64546.69;5050999;28;20224;-58
2023/06/01 00:02:41;;;;;;;8.80;4.45;;;;;;;15.07;100.00;64544.28;5051411;28;20224;-60
2023/06/01 00:05:07;;;;;;;6.32;4.18;;;;;;;15.02;100.00;64535.69;5050908;28;20612;-60
2023/06/01 00:07:33;;;;;;;6.38;4.28;;;;;;;15.10;100.00;64549.56;5050560;28;20304;-60
2023/06/01 00:10:00;;;;;;;6.20;4.57;;;;;;;15.14;100.00;64554.53;5050866;28;20768;-60
2023/06/01 00:12:26;;;;;;;6.10;4.88;;;;;;;15.13;100.00;64547.78;5050885;28;20193;-59
2023/06/01 00:14:52;;;;;;;7.03;4.80;;;;;;;15.17;100.00;64551.66;5050825;28;20205;-58
2023/06/01 00:17:17;;;;;;;6.38;5.05;;;;;;;15.21;100.00;64561.66;5051045;28;20247;-59
2023/06/01 00:19:44;;;;;;;10.57;4.75;;;;;;;15.31;100.00;64567.56;5051323;28;20717;-59
2023/06/01 00:22:10;;;;;;;6.68;4.70;;;;;;;15.53;100.00;64594.34;5033501;28;20227;-59
2023/06/01 00:24:36;;;;;;;6.90;4.53;;;;;;;15.33;100.00;64571.78;5032882;28;20690;-59
2023/06/01 00:27:02;;;;;;;6.03;4.50;;;;;;;15.05;100.00;64539.53;5050671;28;20208;-57
2023/06/01 00:29:28;;;;;;;7.47;5.05;;;;;;;14.95;100.00;64531.09;5050690;28;20312;-57
2023/06/01 00:31:53;;;;;;;5.65;4.57;;;;;;;14.75;100.00;64511.09;5050700;28;20288;-58
2023/06/01 00:34:18;;;;;;;7.15;4.70;;;;;;;14.63;100.00;64495.91;5050302;28;20208;-58
2023/06/01 00:36:44;;;;;;;6.53;4.32;;;;;;;14.65;100.00;64498.13;5050478;28;20198;-57
2023/06/01 00:39:09;;;;;;;4.57;3.95;;;;;;;14.59;100.00;64489.00;5050354;28;20218;-57
2023/06/01 00:41:34;;;;;;;6.35;4.32;;;;;;;14.56;100.00;64487.69;5050468;28;20666;-58
2023/06/01 00:44:00;;;;;;;8.25;4.47;;;;;;;14.36;100.00;64465.72;5050358;28;20702;-59
2023/06/01 00:46:27;;;;;;;6.20;4.22;;;;;;;14.24;100.00;64453.06;5050313;28;20202;-58
2023/06/01 00:48:53;;;;;;;6.47;4.22;;;;;;;14.29;100.00;64456.03;5050597;28;20228;-58
2023/06/01 00:51:19;;;;;;;4.53;3.80;;;;;;;14.18;100.00;64447.00;5050337;28;20690;-61
2023/06/01 00:53:45;;;;;;;6.50;4.55;;;;;;;14.21;100.00;64450.31;5050177;28;20224;-60
2023/06/01 00:56:13;;;;;;;4.25;3.85;;;;;;;13.99;100.00;64428.13;5050543;28;20205;-60
2023/06/01 00:58:42;;;;;;;7.72;4.15;;;;;;;14.13;100.00;64444.06;5050144;28;20212;-59
2023/06/01 01:01:07;;;;;;;6.95;4.50;;;;;;;14.17;100.00;64442.81;5050257;28;20197;-60
2023/06/01 01:03:34;;;;;;;5.10;4.05;;;;;;;14.14;100.00;64444.59;5049948;28;20217;-61
2023/06/01 01:06:22;;;;;;;4.72;4.10;;;;;;;14.21;100.00;64449.75;5050167;28;20583;-57
2023/06/01 01:09:07;;;;;;;5.57;4.17;;;;;;;14.03;100.00;64429.97;5050199;28;20239;-58
2023/06/01 01:11:35;;;;;;;6.85;3.78;;;;;;;13.84;100.00;64411.63;5050414;28;20198;-60
2023/06/01 01:14:21;;;;;;;8.02;4.57;;;;;;;13.90;100.00;64415.69;5050279;28;20241;-60
2023/06/01 01:16:59;;;;;;;6.07;4.43;;;;;;;13.84;100.00;64409.66;5050436;28;20205;-58
2023/06/01 01:19:56;;;;;;;6.77;4.77;;;;;;;13.89;100.00;64415.16;5051400;28;20213;-60
2023/06/01 01:22:57;;;;;;;6.57;5.00;;;;;;;13.88;100.00;64414.06;5053428;28;20655;-58
2023/06/01 01:25:58;;;;;;;7.70;4.37;;;;;;;13.96;100.00;64422.28;5053393;28;20756;-58
2023/06/01 01:28:48;;;;;;;8.40;4.65;;;;;;;13.98;100.00;64427.56;5053274;28;20238;-58
2023/06/01 01:31:18;;;;;;;5.38;4.25;;;;;;;14.07;100.00;64434.38;5053342;28;20205;-58
2023/06/01 01:33:46;;;;;;;8.27;4.78;;;;;;;14.02;100.00;64431.41;5053081;28;20589;-59
2023/06/01 01:36:11;;;;;;;7.93;5.40;;;;;;;13.90;100.00;64418.22;5053445;28;20213;-58
2023/06/01 01:38:37;;;;;;;9.23;5.73;;;;;;;13.70;100.00;64394.28;5053006;28;20316;-59
2023/06/01 01:41:03;;;;;;;6.77;5.67;;;;;;;13.90;100.00;64421.31;5053454;28;20206;-58
2023/06/01 01:43:30;;;;;;;11.60;5.80;;;;;;;13.98;100.00;64427.00;5053164;28;20209;-58
2023/06/01 01:46:17;;;;;;;10.88;5.47;;;;;;;13.87;100.00;64415.50;5053164;28;20248;-56
2023/06/01 01:48:50;;;;;;;7.43;4.90;;;;;;;13.83;100.00;64408.00;5052963;28;20217;-57
2023/06/01 01:51:21;;;;;;;8.07;5.20;;;;;;;13.83;100.00;64410.56;5053123;28;20706;-61
2023/06/01 01:53:51;;;;;;;5.63;4.57;;;;;;;13.83;100.00;64408.00;5052929;28;20218;-60
2023/06/01 01:56:18;;;;;;;5.93;4.32;;;;;;;13.83;100.00;64408.00;5051553;28;20201;-60
2023/06/01 01:58:47;;;;;;;8.27;4.82;;;;;;;13.88;100.00;64416.59;5052904;28;20256;-59
2023/06/01 02:01:12;;;;;;;5.72;4.75;;;;;;;13.92;100.00;64420.41;5052882;28;20221;-60
2023/06/01 02:03:38;;;;;;;7.30;4.82;;;;;;;13.86;100.00;64414.38;5052888;28;20358;-59
2023/06/01 02:06:03;;;;;;;6.90;4.75;;;;;;;13.98;100.00;64422.50;5052627;28;20251;-63
2023/06/01 02:08:29;;;;;;;5.80;4.78;;;;;;;14.07;100.00;64434.38;5052541;28;20225;-61
2023/06/01 02:10:54;;;;;;;7.63;4.60;;;;;;;14.13;100.00;64443.50;5052805;28;20213;-58
2023/06/01 02:13:20;;;;;;;5.72;4.97;;;;;;;13.97;100.00;64425.94;5052537;28;20224;-59
2023/06/01 02:15:45;;;;;;;7.00;4.73;;;;;;;14.00;100.00;64426.69;5052786;28;20262;-57
2023/06/01 02:18:11;;;;;;;8.18;5.13;;;;;;;13.96;100.00;64425.38;5052065;28;20663;-59
2023/06/01 02:20:36;;;;;;;5.30;4.43;;;;;;;13.82;100.00;64410.00;5051454;28;20194;-57
2023/06/01 02:23:02;;;;;;;7.43;5.68;;;;;;;13.87;100.00;64412.41;5051209;28;20273;-59
2023/06/01 02:25:27;;;;;;;9.25;5.68;;;;;;;13.98;100.00;64425.03;5051236;28;20198;-64
2023/06/01 02:27:52;;;;;;;12.75;6.50;;;;;;;13.88;100.00;64414.06;5051098;28;20217;-61
2023/06/01 02:30:18;;;;;;;8.30;5.60;;;;;;;13.82;100.00;64407.47;5052348;28;20633;-60
2023/06/01 02:32:48;;;;;;;9.57;6.70;;;;;;;13.79;100.00;64406.16;5052403;28;20216;-60
2023/06/01 02:35:14;;;;;;;8.43;5.82;;;;;;;13.66;100.00;64392.44;5052334;28;20226;-59
2023/06/01 02:37:39;;;;;;;7.43;5.68;;;;;;;13.61;100.00;64383.88;5052282;28;20225;-60
2023/06/01 02:40:06;;;;;;;8.65;6.47;;;;;;;13.68;100.00;64391.53;5052319;28;20247;-60
2023/06/01 02:42:32;;;;;;;12.65;6.03;;;;;;;13.83;100.00;64408.00;5052237;28;20197;-60
2023/06/01 02:44:57;;;;;;;8.00;5.50;;;;;;;13.89;100.00;64414.59;5052224;28;20590;-57
2023/06/01 02:47:22;;;;;;;9.40;5.70;;;;;;;13.83;100.00;64408.00;5052285;28;20744;-58
2023/06/01 02:49:48;;;;;;;8.60;5.33;;;;;;;13.78;100.00;64405.59;5052042;28;20217;-58
2023/06/01 02:52:13;;;;;;;11.10;5.95;;;;;;;13.95;100.00;64426.25;5052162;28;20674;-56
2023/06/01 02:54:38;;;;;;;7.40;5.95;;;;;;;13.82;100.00;64406.91;5034248;28;20220;-57
2023/06/01 02:57:05;;;;;;;9.50;7.00;;;;;;;13.70;100.00;64393.72;5034082;28;20205;-60
2023/06/01 02:59:37;;;;;;;8.98;6.00;;;;;;;13.71;100.00;64395.41;5051992;28;20232;-57
2023/06/01 03:02:03;;;;;;;6.75;5.47;;;;;;;13.74;100.00;64400.66;5051871;28;20304;-58
2023/06/01 03:04:32;;;;;;;9.13;5.68;;;;;;;13.72;100.00;64395.94;5051825;28;20304;-61
2023/06/01 03:06:58;;;;;;;8.30;6.00;;;;;;;13.85;100.00;64413.31;5051769;28;20301;-59
2023/06/01 03:09:24;;;;;;;7.25;5.55;;;;;;;13.72;100.00;64398.47;5051567;28;20213;-60
2023/06/01 03:11:50;;;;;;;6.15;5.55;;;;;;;13.64;100.00;64387.16;5051861;28;20205;-61
2023/06/01 03:14:15;;;;;;;8.65;6.32;;;;;;;13.73;100.00;64397.59;5051617;28;20210;-60
2023/06/01 03:16:41;;;;;;;9.15;6.43;;;;;;;13.85;100.00;64413.31;5051761;28;20201;-60
2023/06/01 03:19:06;;;;;;;9.20;5.75;;;;;;;13.83;100.00;64410.56;5051807;28;20694;-61
2023/06/01 03:21:32;;;;;;;10.93;7.27;;;;;;;13.80;100.00;64402.19;5050367;28;20740;-60
2023/06/01 03:23:57;;;;;;;25.17;16.27;;;;;;;13.79;100.00;64406.72;5051332;28;20694;-59
2023/06/01 03:26:24;;;;;;;11.60;5.80;;;;;;;13.81;100.00;64408.91;5050281;28;20200;-57
2023/06/01 03:28:50;;;;;;;19.60;13.57;;;;;;;13.79;100.00;64404.19;5051349;28;20312;-60
2023/06/01 03:31:15;;;;;;;7.88;6.50;;;;;;;13.87;100.00;64415.50;5051819;28;20295;-58
2023/06/01 03:33:41;;;;;;;7.45;5.85;;;;;;;13.94;100.00;64420.63;5051307;28;20680;-58
2023/06/01 03:36:07;;;;;;;8.13;5.85;;;;;;;14.10;100.00;64437.66;5051397;28;20671;-58
2023/06/01 03:38:34;;;;;;;8.85;4.82;;;;;;;14.04;100.00;64433.59;5051343;28;20213;-58
2023/06/01 03:41:00;;;;;;;11.30;5.93;;;;;;;13.93;100.00;64419.56;5051106;28;20193;-58
2023/06/01 03:43:25;;;;;;;9.10;6.35;;;;;;;13.80;100.00;64405.25;5050806;28;20719;-58
2023/06/01 03:45:51;;;;;;;9.93;6.15;;;;;;;13.86;100.00;64414.38;5051289;28;20193;-58
2023/06/01 03:48:16;;;;;;;8.93;5.93;;;;;;;13.97;100.00;64420.84;5051078;28;20303;-58
2023/06/01 03:50:42;;;;;;;8.90;5.95;;;;;;;13.91;100.00;64419.34;5051586;28;20221;-58
2023/06/01 03:53:07;;;;;;;8.43;5.22;;;;;;;13.98;100.00;64425.03;5051108;28;20209;-57
2023/06/01 03:55:34;;;;;;;10.88;6.43;;;;;;;13.98;100.00;64424.47;5051075;28;20189;-63
2023/06/01 03:58:02;;;;;;;7.47;5.45;;;;;;;13.95;100.00;64423.72;5051217;28;20186;-59
2023/06/01 04:00:28;;;;;;;14.27;6.87;;;;;;;13.98;100.00;64424.47;5051261;28;20202;-58
2023/06/01 04:02:56;;;;;;;8.93;6.40;;;;;;;14.09;100.00;64436.56;5050007;28;20197;-59
2023/06/01 04:05:23;;;;;;;9.55;6.75;;;;;;;13.94;100.00;64420.63;5048948;28;20209;-57
2023/06/01 04:07:51;;;;;;;7.70;6.30;;;;;;;13.98;100.00;64424.47;5050217;28;20313;-59
2023/06/01 04:10:17;;;;;;;7.87;5.77;;;;;;;14.42;100.00;64472.31;5050839;28;20646;-59
2023/06/01 04:12:46;;;;;;;9.38;6.07;;;;;;;14.81;100.00;64515.16;5050990;28;20220;-58
2023/06/01 04:15:13;;;;;;;15.68;6.22;;;;;;;14.74;100.00;64510.56;5050874;28;20276;-58
2023/06/01 04:17:39;;;;;;;7.55;5.72;;;;;;;14.65;100.00;64498.13;5050695;28;20284;-58
2023/06/01 04:20:09;;;;;;;7.28;5.43;;;;;;;14.65;100.00;64498.13;5032881;28;20710;-59
2023/06/01 04:22:35;;;;;;;10.60;5.90;;;;;;;14.42;100.00;64472.31;5032654;28;20190;-61
2023/06/01 04:25:01;;;;;;;12.68;6.00;;;;;;;14.43;100.00;64479.00;5032911;28;20205;-59
2023/06/01 04:27:27;;;;;;;8.82;5.50;;;;;;;14.33;100.00;64462.97;5050604;28;20292;-59
2023/06/01 04:29:53;;;;;;;7.75;5.43;;;;;;;14.40;100.00;64470.66;5050740;28;20300;-58
2023/06/01 04:32:21;;;;;;;9.60;5.60;;;;;;;14.48;100.00;64479.44;5050831;28;20224;-57
2023/06/01 04:34:50;;;;;;;7.88;5.70;;;;;;;14.52;100.00;64483.28;5032625;28;20217;-57
2023/06/01 04:37:19;;;;;;;8.05;5.35;;;;;;;14.28;100.00;64458.00;5050536;28;20204;-58
2023/06/01 04:39:48;;;;;;;8.50;5.30;;;;;;;14.36;100.00;64468.78;5049203;28;20205;-59
2023/06/01 04:42:16;;;;;;;7.63;6.22;;;;;;;14.40;100.00;64470.09;5050619;28;20214;-60
2023/06/01 04:44:49;;;;;;;9.43;5.85;;;;;;;14.52;100.00;64486.38;5050393;28;20220;-60
2023/06/01 04:47:16;;;;;;;7.88;5.50;;;;;;;14.53;100.00;64484.94;5050389;28;20207;-60
2023/06/01 04:49:43;;;;;;;7.28;6.20;;;;;;;14.62;100.00;64494.84;5050238;28;20214;-60
2023/06/01 04:52:12;;;;;;;10.50;7.40;;;;;;;14.70;100.00;64505.59;5049085;28;20717;-61
2023/06/01 04:54:37;;;;;;;9.80;8.07;;;;;;;14.67;100.00;64500.31;5052448;28;20217;-62
2023/06/01 04:57:06;;;;;;;15.80;11.15;;;;;;;14.87;100.00;64521.75;5053966;28;20211;-61
2023/06/01 04:59:31;;;;;;;21.42;12.52;;;;;;;14.88;100.00;64522.84;5053818;28;20221;-61
2023/06/01 05:01:57;;;;;;;15.35;12.70;;;;;;;14.72;100.00;64508.34;5053895;28;20557;-60
2023/06/01 05:04:22;;;;;;;16.67;11.50;;;;;;;15.32;100.00;64570.66;5053653;28;20201;-60
2023/06/01 05:06:48;;;;;;;16.30;11.13;;;;;;;15.36;100.00;64575.63;5053826;28;20268;-59
2023/06/01 05:09:14;;;;;;;15.48;10.07;;;;;;;15.47;100.00;64587.19;5053434;28;20213;-60
2023/06/01 05:11:39;;;;;;;15.23;8.68;;;;;;;15.63;100.00;64607.34;5053713;28;20201;-63
2023/06/01 05:14:05;;;;;;;15.18;9.23;;;;;;;15.45;100.00;64585.00;5052435;28;20591;-62
2023/06/01 05:16:31;;;;;;;14.88;10.50;;;;;;;15.24;100.00;64562.44;5053689;28;20198;-58
2023/06/01 05:18:57;;;;;;;15.10;9.57;;;;;;;15.51;100.00;64591.59;5053450;28;20222;-59
2023/06/01 05:21:22;;;;;;;13.60;7.75;;;;;;;15.74;100.00;64616.88;5053807;28;20201;-59
2023/06/01 05:23:47;;;;;;;12.95;8.55;;;;;;;15.72;100.00;64615.25;5035635;28;20688;-60
2023/06/01 05:26:13;;;;;;;14.23;8.40;;;;;;;15.62;100.00;64603.69;5053473;28;20238;-59
2023/06/01 05:28:39;;;;;;;13.18;8.07;;;;;;;15.71;100.00;64614.16;5053456;28;20224;-58
2023/06/01 05:31:05;;;;;;;12.30;8.18;;;;;;;15.81;100.00;64627.13;5053651;28;20190;-57
2023/06/01 05:33:30;;;;;;;13.98;8.70;;;;;;;15.78;100.00;64621.28;5053261;28;20254;-60
2023/06/01 05:35:56;;;;;;;17.70;10.60;;;;;;;15.93;100.00;64637.81;5053380;28;20309;-57
2023/06/01 05:38:21;;;;;;;14.25;9.10;;;;;;;15.78;100.00;64621.28;5053291;28;20220;-59
2023/06/01 05:40:47;;;;;;;16.83;9.23;;;;;;;15.82;100.00;64626.25;5052254;28;20685;-57
2023/06/01 05:43:14;;;;;;;20.30;8.27;;;;;;;15.83;100.00;64629.34;5051770;28;20213;-59
2023/06/01 05:45:39;;;;;;;17.50;11.35;;;;;;;16.12;100.00;64658.69;5053292;28;20281;-58
2023/06/01 05:48:05;;;;;;;16.00;10.70;;;;;;;16.10;100.00;64656.50;5051177;28;20696;-60
2023/06/01 05:50:30;;;;;;;22.90;10.77;;;;;;;16.07;100.00;64650.66;5050984;28;20181;-65
2023/06/01 05:52:56;;;;;;;18.30;9.75;;;;;;;15.95;100.00;64640.00;5052717;28;20601;-60
2023/06/01 05:55:21;;;;;;;16.80;11.15;;;;;;;15.93;100.00;64637.81;5053336;28;20273;-60
2023/06/01 05:57:46;;;;;;;29.27;14.18;;;;;;;15.97;100.00;64644.75;5034886;28;20209;-61
2023/06/01 06:00:15;;;;;;;22.58;12.27;;;;;;;16.12;100.00;64658.16;5032696;28;20282;-59
2023/06/01 06:02:44;;;;;;;16.83;12.27;;;;;;;16.26;100.00;64671.56;5052757;28;20205;-58
2023/06/01 06:05:09;;;;;;;21.55;13.05;;;;;;;16.00;100.00;64644.97;5051448;28;20288;-58
2023/06/01 06:07:35;;;;;;;22.45;12.70;;;;;;;16.17;100.00;64664.22;5052680;28;20823;-60
2023/06/01 06:10:01;;;;;;;21.02;12.88;;;;;;;16.33;100.00;64681.81;5052516;28;20216;-58
2023/06/01 06:12:27;;;;;;;20.77;12.93;;;;;;;16.24;100.00;64671.38;5052519;28;20198;-59
2023/06/01 06:14:53;;;;;;;20.83;13.20;;;;;;;16.34;100.00;64682.38;5052397;28;20687;-58
2023/06/01 06:17:19;;;;;;;21.48;13.75;;;;;;;16.60;100.00;64711.03;5052435;28;20208;-59
2023/06/01 06:19:44;;;;;;;17.15;12.82;;;;;;;16.54;100.00;64704.94;5052163;28;20197;-60
2023/06/01 06:22:10;;;;;;;18.10;12.13;;;;;;;16.64;100.00;64715.44;5052913;28;20224;-59
2023/06/01 06:24:35;;;;;;;24.40;13.65;;;;;;;16.53;100.00;64701.31;5052810;28;20214;-60
2023/06/01 06:27:02;;;;;;;21.40;12.88;;;;;;;16.69;100.00;64720.94;5052370;28;20205;-61
2023/06/01 06:29:27;;;;;;;22.17;13.80;;;;;;;16.79;100.00;64729.94;5052332;28;20307;-60
2023/06/01 06:31:52;;;;;;;20.38;12.52;;;;;;;16.85;100.00;64740.56;5052434;28;20206;-60
2023/06/01 06:34:18;;;;;;;20.42;11.73;;;;;;;17.12;100.00;64768.28;5052254;28;20262;-59
2023/06/01 06:36:43;;;;;;;16.13;11.73;;;;;;;16.96;100.00;64750.66;5050918;28;20590;-58
2023/06/01 06:39:09;;;;;;;18.17;12.10;;;;;;;17.01;100.00;64755.63;5051981;28;20236;-60
2023/06/01 06:41:34;;;;;;;16.75;11.85;;;;;;;17.01;100.00;64758.72;5052263;28;20272;-60
2023/06/01 06:44:00;;;;;;;17.88;11.85;;;;;;;16.91;100.00;64742.59;5050975;28;20229;-59
2023/06/01 06:46:25;;;;;;;22.50;12.25;;;;;;;17.09;100.00;64764.97;5052204;28;20195;-59
2023/06/01 06:48:51;;;;;;;20.00;12.15;;;;;;;17.14;100.00;64767.41;5051790;28;20304;-60
2023/06/01 06:51:16;;;;;;;21.58;12.10;;;;;;;17.33;100.00;64788.34;5052395;28;20177;-58
2023/06/01 06:53:42;;;;;;;18.05;12.18;;;;;;;17.31;100.00;64788.69;5051956;28;20732;-58
2023/06/01 06:56:07;;;;;;;29.85;12.10;;;;;;;17.33;100.00;64790.88;5052125;28;20198;-58
2023/06/01 06:58:32;;;;;;;19.55;11.63;;;;;;;17.41;100.00;64797.69;5050501;28;20645;-60
2023/06/01 07:00:58;;;;;;;19.67;11.15;;;;;;;17.42;100.00;64798.25;5052076;28;20212;-59
2023/06/01 07:03:24;;;;;;;25.75;11.90;;;;;;;17.43;100.00;64799.88;5051635;28;20209;-60
2023/06/01 07:05:49;;;;;;;17.10;13.35;;;;;;;17.72;100.00;64831.31;5051668;28;20192;-59
2023/06/01 07:08:15;;;;;;;20.05;12.85;;;;;;;17.97;100.00;64858.34;5051508;28;20300;-61
2023/06/01 07:10:40;;;;;;;16.80;12.07;;;;;;;17.95;100.00;64856.13;5051699;28;20276;-60
2023/06/01 07:13:05;;;;;;;17.55;11.65;;;;;;;17.75;100.00;64837.19;5050600;28;20241;-61
2023/06/01 07:15:38;;;;;;;32.35;12.98;;;;;;;17.85;100.00;64845.66;5048148;28;20217;-59
2023/06/01 07:18:03;;;;;;;23.83;13.95;;;;;;;18.04;100.00;64869.16;5049272;28;20718;-60
2023/06/01 07:20:28;;;;;;;25.35;14.70;;;;;;;17.93;100.00;64853.94;5051821;28;20197;-58
2023/06/01 07:22:54;;;;;;;23.95;14.75;;;;;;;18.08;100.00;64873.03;5051613;28;20237;-59
2023/06/01 07:25:19;;;;;;;20.23;15.18;;;;;;;18.09;100.00;64871.56;5051794;28;20690;-58
2023/06/01 07:27:48;;;;;;;23.05;13.63;;;;;;;18.35;100.00;64900.78;5051330;28;20680;-60
2023/06/01 07:30:14;;;;;;;28.15;15.50;;;;;;;18.63;100.00;64931.13;5034075;28;20221;-61
2023/06/01 07:32:40;;;;;;;28.33;18.58;;;;;;;18.66;100.00;64939.56;5051019;28;20706;-60
2023/06/01 07:35:07;;;;;;;25.35;17.88;;;;;;;18.81;100.00;64950.44;5051134;28;20296;-60
2023/06/01 07:37:33;;;;;;;33.38;19.95;;;;;;;18.78;100.00;64947.16;5050855;28;20209;-61
2023/06/01 07:42:42;;;;;;;24.05;17.65;;;;;;;19.06;100.00;64978.59;5049999;28;20263;-61
2023/06/01 07:45:09;;;;;;;28.25;19.85;;;;;;;19.29;100.00;65006.53;5050623;28;20209;-60
2023/06/01 07:47:34;;;;;;;27.65;18.67;;;;;;;19.26;100.00;65000.66;5032620;28;20205;-60
2023/06/01 07:50:00;;;;;;;25.73;18.90;;;;;;;19.27;100.00;65004.31;5050354;28;20707;-60
2023/06/01 07:52:25;;;;;;;25.52;19.15;;;;;;;19.42;100.00;65017.78;5050308;28;20217;-61
2023/06/01 07:54:51;;;;;;;27.02;20.88;;;;;;;19.06;100.00;64980.59;5048757;28;20224;-59
2023/06/01 07:57:17;;;;;;;26.27;19.38;;;;;;;19.26;100.00;65000.66;5050355;28;20431;-59
2023/06/01 07:59:43;;;;;;;26.40;17.80;;;;;;;19.21;100.00;64997.13;5050617;28;20228;-60
2023/06/01 08:02:10;;;;;;;30.90;17.45;;;;;;;19.05;100.00;64976.94;5049475;28;20258;-61
2023/06/01 08:04:37;;;;;;;30.60;18.45;;;;;;;19.15;100.00;64991.06;5050685;28;20221;-59
2023/06/01 08:07:06;;;;;;;31.95;19.15;;;;;;;19.32;100.00;65006.72;5050537;28;20201;-60
2023/06/01 08:09:32;;;;;;;32.75;21.63;;;;;;;19.41;100.00;65018.69;5050395;28;20221;-59
2023/06/01 08:11:58;;;;;;;31.27;20.10;;;;;;;19.32;100.00;65009.28;5032606;28;20224;-60
2023/06/01 08:14:24;;;;;;;29.30;21.73;;;;;;;19.45;100.00;65021.13;5050317;28;20209;-59
2023/06/01 08:16:51;;;;;;;29.98;20.70;;;;;;;19.56;100.00;65032.69;5050506;28;20177;-60
2023/06/01 08:19:16;;;;;;;34.60;20.92;;;;;;;19.74;100.00;65053.13;5050481;28;20301;-59
2023/06/01 08:21:43;;;;;;;36.42;23.65;;;;;;;19.65;100.00;65043.19;5032790;28;20247;-61
2023/06/01 08:24:08;;;;;;;33.10;21.80;;;;;;;19.88;100.00;65068.59;5050130;28;20221;-60
2023/06/01 08:26:37;;;;;;;37.60;21.92;;;;;;;20.17;100.00;65102.06;5050214;28;20280;-60
2023/06/01 08:29:03;;;;;;;30.80;20.95;;;;;;;20.48;100.00;65134.34;5048549;28;20245;-57
2023/06/01 08:31:29;;;;;;;30.00;18.90;;;;;;;20.53;99.95;65139.88;5050260;28;20228;-58
2023/06/01 08:33:55;;;;;;;37.78;20.98;;;;;;;20.43;100.00;65128.25;5050440;28;20725;-58
2023/06/01 08:36:21;;;;;;;34.83;20.85;;;;;;;20.30;100.00;65113.91;5050015;28;20198;-57
2023/06/01 08:38:48;;;;;;;33.55;20.38;;;;;;;20.39;98.03;65123.84;5032464;28;20220;-57
2023/06/01 08:41:24;;;;;;;31.13;20.45;;;;;;;20.38;97.80;65123.28;5050189;28;20189;-56
2023/06/01 08:44:01;;;;;;;28.30;18.55;;;;;;;20.73;97.70;65161.97;5049938;28;20208;-57
2023/06/01 08:46:26;;;;;;;28.25;19.83;;;;;;;20.92;94.42;65185.00;5049957;28;20579;-57
2023/06/01 08:48:54;;;;;;;30.90;21.42;;;;;;;20.75;96.64;65163.63;5049825;28;20307;-58
2023/06/01 08:51:20;;;;;;;36.80;22.08;;;;;;;20.75;97.50;65161.63;5050051;28;20228;-58
2023/06/01 08:53:49;;;;;;;35.85;20.50;;;;;;;20.96;96.42;65186.84;5049659;28;20300;-60
2023/06/01 08:56:15;;;;;;;33.28;20.33;;;;;;;21.32;97.74;65226.69;5032263;28;20209;-58
2023/06/01 08:58:41;;;;;;;29.25;19.10;;;;;;;21.61;96.32;65255.63;5032031;28;20228;-59
2023/06/01 09:01:07;;;;;;;27.83;18.40;;;;;;;21.49;94.85;65242.38;5049854;28;20205;-59
2023/06/01 09:03:32;;;;;;;19.73;15.98;;;;;;;21.69;91.03;65267.59;5049508;28;20217;-59
2023/06/01 09:05:58;;;;;;;25.27;17.98;;;;;;;21.46;92.33;65239.59;5049940;28;20197;-58
2023/06/01 09:08:24;;;;;;;28.27;19.90;;;;;;;21.58;93.66;65252.88;5049435;28;20217;-59
2023/06/01 09:10:49;;;;;;;32.60;19.08;;;;;;;21.38;92.22;65232.75;5049882;28;20196;-59
2023/06/01 09:13:31;;;;;;;29.20;18.85;;;;;;;21.52;90.36;65248.78;5049631;28;20209;-59
2023/06/01 09:15:57;;;;;;;30.20;18.17;;;;;;;21.65;94.56;65260.06;5049756;28;20213;-59
2023/06/01 09:18:22;;;;;;;24.60;16.50;;;;;;;22.14;89.15;65318.88;5048951;28;20235;-61
2023/06/01 09:20:48;;;;;;;24.90;16.45;;;;;;;22.39;88.45;65344.53;5049560;28;20201;-57
2023/06/01 09:23:24;;;;;;;19.17;13.50;;;;;;;22.75;91.44;65386.44;5049517;28;20257;-57
2023/06/01 09:26:06;;;;;;;22.33;15.80;;;;;;;22.81;86.21;65390.50;5049446;28;20260;-58
2023/06/01 09:29:00;;;;;;;21.38;16.00;;;;;;;22.66;86.49;65373.34;5046202;28;20225;-57
2023/06/01 09:31:46;;;;;;;25.02;14.90;;;;;;;23.23;83.53;65436.47;5049219;28;20216;-57
2023/06/01 09:34:18;;;;;;;26.10;16.27;;;;;;;23.10;83.16;65422.06;5049381;28;20205;-59
2023/06/01 09:36:44;;;;;;;24.65;15.43;;;;;;;23.27;81.07;65438.88;5049332;28;20202;-58
2023/06/01 09:39:15;;;;;;;20.92;15.05;;;;;;;23.46;82.67;65461.41;5049435;28;20267;-57
2023/06/01 09:41:51;;;;;;;19.23;13.88;;;;;;;22.97;79.91;65408.22;5052845;28;20189;-58
2023/06/01 09:44:37;;;;;;;22.92;14.18;;;;;;;23.67;79.08;65482.13;5052492;28;20221;-56
2023/06/01 09:47:04;;;;;;;23.33;14.68;;;;;;;23.48;80.97;65463.63;5052315;28;20231;-57
2023/06/01 09:49:34;;;;;;;22.23;14.65;;;;;;;23.91;77.08;65509.28;5051282;28;20213;-58
2023/06/01 09:52:05;;;;;;;24.00;14.45;;;;;;;24.40;77.24;65562.53;5051739;28;20697;-60
2023/06/01 09:54:34;;;;;;;21.25;14.15;;;;;;;24.55;77.08;65582.28;5052531;28;20213;-63
2023/06/01 09:57:01;;;;;;;18.33;13.60;;;;;;;23.88;71.99;65508.53;5052604;28;20201;-58
2023/06/01 09:59:28;;;;;;;22.00;11.55;;;;;;;24.43;72.69;65566.41;5052547;28;20224;-58
2023/06/01 10:01:57;;;;;;;13.77;11.40;;;;;;;24.62;75.53;65590.06;5052456;28;20210;-58
2023/06/01 10:04:26;;;;;;;14.90;10.70;;;;;;;24.96;65.08;65625.22;5052933;28;20214;-60
2023/06/01 10:06:54;;;;;;;13.90;9.95;;;;;;;25.30;72.04;65661.81;5052269;28;20670;-58
2023/06/01 10:09:21;;;;;;;15.88;9.82;;;;;;;25.22;67.46;65653.50;5033909;28;20206;-58
2023/06/01 10:11:48;;;;;;;12.10;9.38;;;;;;;25.10;68.85;65639.63;5052229;28;20201;-59
2023/06/01 10:14:15;;;;;;;14.15;9.63;;;;;;;24.23;70.18;65546.78;5052280;28;20277;-60
2023/06/01 10:16:41;;;;;;;13.30;9.00;;;;;;;24.27;71.12;65550.66;5052164;28;20197;-60
2023/06/01 10:19:08;;;;;;;9.20;7.03;;;;;;;23.40;67.02;65454.78;5051896;28;20733;-65
2023/06/01 10:21:35;;;;;;;9.07;6.68;;;;;;;23.28;67.25;65442.56;5051074;28;20208;-59
2023/06/01 10:24:02;;;;;;;9.48;6.47;;;;;;;22.86;66.36;65393.47;5049888;28;20198;-60
2023/06/01 10:26:30;;;;;;;9.00;5.75;;;;;;;22.67;69.71;65372.44;5051146;28;20336;-59
2023/06/01 10:28:57;;;;;;;10.02;6.15;;;;;;;22.61;67.87;65367.78;5051761;28;20248;-60
2023/06/01 10:31:40;;;;;;;9.70;7.05;;;;;;;22.49;67.50;65355.06;5052055;28;20216;-60
2023/06/01 10:34:08;;;;;;;9.85;6.30;;;;;;;22.21;68.01;65324.06;5051680;28;20201;-59
2023/06/01 10:36:51;;;;;;;11.43;7.03;;;;;;;22.13;68.81;65312.63;5051805;28;20202;-59
2023/06/01 10:39:31;;;;;;;8.63;6.78;;;;;;;22.20;72.25;65320.38;5051984;28;20213;-59
2023/06/01 10:42:17;;;;;;;10.43;6.10;;;;;;;22.49;67.77;65355.06;5051573;28;20216;-56
2023/06/01 10:44:42;;;;;;;8.93;5.32;;;;;;;22.26;64.07;65330.13;5037934;28;20225;-56
2023/06/01 10:47:11;;;;;;;6.30;4.22;;;;;;;22.17;63.09;65322.19;5051261;28;20197;-57
2023/06/01 10:49:51;;;;;;;7.28;4.97;;;;;;;22.27;64.23;65328.13;5050659;28;20721;-57
2023/06/01 10:52:38;;;;;;;5.35;4.55;;;;;;;22.59;60.85;65363.00;5051501;28;20186;-57
2023/06/01 10:55:06;;;;;;;6.70;4.60;;;;;;;22.32;58.90;65336.25;5051433;28;20216;-58
2023/06/01 10:57:38;;;;;;;9.38;4.68;;;;;;;22.08;62.84;65309.69;5051161;28;20217;-58
2023/06/01 11:00:15;;;;;;;7.55;4.50;;;;;;;21.88;63.67;65287.53;5050160;28;20239;-57
2023/06/01 11:02:56;;;;;;;8.20;4.22;;;;;;;21.56;64.10;65253.22;5051165;28;20193;-57
2023/06/01 11:05:47;;;;;;;10.90;5.00;;;;;;;21.23;65.51;65216.72;5051440;28;20215;-58
2023/06/01 11:08:19;;;;;;;11.48;4.95;;;;;;;21.01;67.13;65194.94;5051401;28;20215;-57
2023/06/01 11:10:57;;;;;;;5.15;4.38;;;;;;;20.98;64.50;65188.50;5051360;28;20209;-58
2023/06/01 11:13:34;;;;;;;9.90;4.68;;;;;;;20.87;67.09;65177.44;5051638;28;20674;-57
2023/06/01 11:16:18;;;;;;;8.40;4.90;;;;;;;20.82;69.97;65171.38;5051121;28;20259;-57
2023/06/01 11:18:46;;;;;;;7.85;4.32;;;;;;;20.73;68.53;65158.84;5033631;28;20225;-57
2023/06/01 11:21:21;;;;;;;7.20;4.47;;;;;;;20.67;67.08;65152.22;5049807;28;20202;-58
2023/06/01 11:23:47;;;;;;;7.93;4.13;;;;;;;20.36;69.16;65123.63;5051135;28;20245;-57
2023/06/01 11:26:18;;;;;;;4.63;3.80;;;;;;;20.36;68.69;65123.63;5051364;28;20186;-59